createdAt,value
2022-11-19T00:02:18.151Z,97418.63
2022-11-19T00:04:44.768Z,97409.25
2022-11-19T00:07:11.326Z,97413.59
2022-11-19T00:09:38.030Z,97411.91
2022-11-19T00:12:23.413Z,97410.59
2022-11-19T00:14:49.949Z,97408.31
2022-11-19T00:17:16.504Z,97402.72
2022-11-19T00:19:42.983Z,97408.66
2022-11-19T00:22:09.577Z,97408.47
2022-11-19T00:24:36.060Z,97413.06
2022-11-19T00:27:02.602Z,97409.94
2022-11-19T00:29:29.310Z,97401.69
2022-11-19T00:31:56.181Z,97405.28
2022-11-19T00:34:23.152Z,97402.34
2022-11-19T00:36:50.722Z,97400.34
2022-11-19T00:39:17.852Z,97412.69
2022-11-19T00:41:44.589Z,97402.97
2022-11-19T00:44:11.185Z,97399.97
2022-11-19T00:46:37.953Z,97401.09
2022-11-19T00:49:04.702Z,97397.53
2022-11-19T00:51:31.216Z,97396.06
2022-11-19T00:53:57.797Z,97395.75
2022-11-19T00:56:25.074Z,97388.63
2022-11-19T00:58:51.741Z,97397.22
2022-11-19T01:01:19.615Z,97394.72
2022-11-19T01:03:46.348Z,97398.69
2022-11-19T01:06:16.468Z,97399.53
2022-11-19T01:08:45.909Z,97399.66
2022-11-19T01:11:16.790Z,97400.13
2022-11-19T01:13:44.017Z,97394.53
2022-11-19T01:16:13.756Z,97403.31
2022-11-19T01:18:40.533Z,97401.63
2022-11-19T01:21:08.386Z,97398.06
2022-11-19T01:23:35.908Z,97400.69
2022-11-19T01:26:02.666Z,97397.75
2022-11-19T01:28:29.524Z,97407.97
2022-11-19T01:30:56.091Z,97398.28
2022-11-19T01:33:22.763Z,97403.69
2022-11-19T01:35:56.307Z,97410.94
2022-11-19T01:38:22.838Z,97406.00
2022-11-19T01:40:49.331Z,97404.84
2022-11-19T01:43:15.992Z,97399.44
2022-11-19T01:45:48.902Z,97405.00
2022-11-19T01:48:20.155Z,97409.94
2022-11-19T01:50:50.229Z,97406.63
2022-11-19T01:53:17.379Z,97398.75
2022-11-19T01:55:43.921Z,97403.16
2022-11-19T01:58:11.167Z,97404.19
2022-11-19T02:00:37.747Z,97404.53
2022-11-19T02:03:04.236Z,97408.97
2022-11-19T02:05:31.205Z,97402.69
2022-11-19T02:07:58.475Z,97410.97
2022-11-19T02:10:27.427Z,97418.84
2022-11-19T02:13:03.029Z,97409.75
2022-11-19T02:15:44.892Z,97416.53
2022-11-19T02:18:17.890Z,97411.88
2022-11-19T02:20:45.552Z,97425.28
2022-11-19T02:26:26.964Z,97410.97
2022-11-19T02:28:54.208Z,97416.22
2022-11-19T02:31:20.747Z,97407.16
2022-11-19T02:33:55.480Z,97413.75
2022-11-19T02:36:28.836Z,97414.72
2022-11-19T02:38:56.678Z,97423.78
2022-11-19T02:41:41.940Z,97417.53
2022-11-19T02:44:46.287Z,97424.81
2022-11-19T02:47:14.854Z,97424.47
2022-11-19T02:49:42.652Z,97420.38
2022-11-19T02:52:09.344Z,97426.63
2022-11-19T02:54:35.879Z,97424.16
2022-11-19T02:57:03.453Z,97425.00
2022-11-19T02:59:55.223Z,97426.31
2022-11-19T03:02:40.252Z,97432.69
2022-11-19T03:05:07.577Z,97439.63
2022-11-19T03:07:34.608Z,97440.78
2022-11-19T03:10:02.292Z,97433.06
2022-11-19T03:12:39.729Z,97435.66
2022-11-19T03:15:27.709Z,97434.16
2022-11-19T03:17:54.340Z,97438.81
2022-11-19T03:20:23.712Z,97433.00
2022-11-19T03:22:54.653Z,97434.38
2022-11-19T03:25:35.178Z,97439.28
2022-11-19T03:28:03.007Z,97438.28
2022-11-19T03:30:29.851Z,97429.66
2022-11-19T03:33:00.027Z,97431.50
2022-11-19T03:35:28.035Z,97441.19
2022-11-19T03:37:54.571Z,97438.91
2022-11-19T03:40:21.208Z,97441.88
2022-11-19T03:42:48.259Z,97432.81
2022-11-19T03:45:19.063Z,97439.56
2022-11-19T03:47:45.661Z,97442.38
2022-11-19T03:50:17.606Z,97445.66
2022-11-19T03:52:44.219Z,97448.28
2022-11-19T03:55:10.715Z,97449.47
2022-11-19T03:57:37.312Z,97457.03
2022-11-19T04:00:04.826Z,97458.81
2022-11-19T04:02:40.362Z,97462.00
2022-11-19T04:05:07.106Z,97469.41
2022-11-19T04:07:33.718Z,97462.97
2022-11-19T04:10:00.399Z,97459.38
2022-11-19T04:12:27.055Z,97457.03
2022-11-19T04:14:54.187Z,97464.38
2022-11-19T04:17:21.219Z,97463.84
2022-11-19T04:19:48.284Z,97453.44
2022-11-19T04:22:14.853Z,97458.44
2022-11-19T04:24:41.398Z,97454.41
2022-11-19T04:27:07.904Z,97463.31
2022-11-19T04:29:34.507Z,97457.69
2022-11-19T04:32:01.067Z,97450.94
2022-11-19T04:34:27.602Z,97458.34
2022-11-19T04:36:54.117Z,97457.22
2022-11-19T04:39:21.045Z,97455.25
2022-11-19T04:41:47.847Z,97459.38
2022-11-19T04:44:14.358Z,97457.53
2022-11-19T04:46:40.852Z,97456.03
2022-11-19T04:49:07.462Z,97467.94
2022-11-19T04:51:33.971Z,97460.00
2022-11-19T04:54:00.587Z,97466.13
2022-11-19T04:56:27.134Z,97461.97
2022-11-19T04:58:53.705Z,97458.50
2022-11-19T05:01:21.072Z,97472.53
2022-11-19T05:03:48.527Z,97463.16
2022-11-19T05:06:15.804Z,97476.69
2022-11-19T05:08:42.637Z,97468.91
2022-11-19T05:11:09.121Z,97470.22
2022-11-19T05:13:35.731Z,97465.59
2022-11-19T05:16:02.330Z,97465.66
2022-11-19T05:18:29.250Z,97461.88
2022-11-19T05:20:55.872Z,97462.06
2022-11-19T05:23:22.518Z,97462.88
2022-11-19T05:25:49.084Z,97459.91
2022-11-19T05:28:17.254Z,97460.72
2022-11-19T05:30:45.818Z,97453.44
2022-11-19T05:33:12.373Z,97457.34
2022-11-19T05:35:38.928Z,97461.47
2022-11-19T05:38:06.587Z,97460.97
2022-11-19T05:40:33.112Z,97462.66
2022-11-19T05:43:03.599Z,97462.34
2022-11-19T05:45:30.239Z,97464.19
2022-11-19T05:47:56.919Z,97464.97
2022-11-19T05:50:23.486Z,97464.47
2022-11-19T05:52:50.055Z,97467.94
2022-11-19T05:55:16.985Z,97470.88
2022-11-19T05:57:43.526Z,97475.31
2022-11-19T06:00:10.709Z,97479.16
2022-11-19T06:02:40.226Z,97478.66
2022-11-19T06:05:06.936Z,97479.47
2022-11-19T06:07:33.440Z,97485.09
2022-11-19T06:10:00.028Z,97483.75
2022-11-19T06:12:26.612Z,97480.78
2022-11-19T06:14:53.342Z,97474.19
2022-11-19T06:17:20.113Z,97486.06
2022-11-19T06:19:47.208Z,97481.94
2022-11-19T06:22:13.748Z,97489.34
2022-11-19T06:24:40.329Z,97489.38
2022-11-19T06:27:07.523Z,97481.16
2022-11-19T06:29:34.091Z,97487.44
2022-11-19T06:32:00.595Z,97483.13
2022-11-19T06:34:48.747Z,97501.28
2022-11-19T06:37:22.023Z,97502.63
2022-11-19T06:39:49.842Z,97500.81
2022-11-19T06:42:40.679Z,97506.22
2022-11-19T06:45:12.857Z,97510.53
2022-11-19T06:48:06.331Z,97511.00
2022-11-19T06:50:37.630Z,97513.47
2022-11-19T06:53:18.051Z,97519.41
2022-11-19T06:56:10.035Z,97522.22
2022-11-19T06:58:45.919Z,97513.31
2022-11-19T07:01:35.343Z,97524.69
2022-11-19T07:06:48.949Z,97519.28
2022-11-19T07:09:15.555Z,97525.03
2022-11-19T07:11:42.150Z,97530.81
2022-11-19T07:14:08.796Z,97539.03
2022-11-19T07:16:36.068Z,97530.84
2022-11-19T07:19:03.831Z,97536.59
2022-11-19T07:21:30.514Z,97541.84
2022-11-19T07:23:57.478Z,97534.75
2022-11-19T07:26:24.145Z,97541.19
2022-11-19T07:28:50.855Z,97540.88
2022-11-19T07:31:17.587Z,97547.81
2022-11-19T07:33:44.228Z,97548.78
2022-11-19T07:36:18.137Z,97547.81
2022-11-19T07:38:45.554Z,97555.03
2022-11-19T07:41:31.497Z,97554.56
2022-11-19T07:44:33.944Z,97550.25
2022-11-19T07:47:22.070Z,97557.69
2022-11-19T07:49:49.521Z,97558.00
2022-11-19T07:55:08.045Z,97556.53
2022-11-19T07:57:34.892Z,97557.88
2022-11-19T08:00:01.632Z,97556.72
2022-11-19T08:02:28.251Z,97559.31
2022-11-19T08:04:54.893Z,97559.66
2022-11-19T08:07:21.735Z,97566.41
2022-11-19T08:09:50.463Z,97566.88
2022-11-19T08:12:17.165Z,97559.13
2022-11-19T08:14:43.662Z,97563.41
2022-11-19T08:17:28.934Z,97561.91
2022-11-19T08:22:22.001Z,97559.63
2022-11-19T08:24:48.818Z,97563.72
2022-11-19T08:27:15.683Z,97558.94
2022-11-19T08:29:42.691Z,97560.75
2022-11-19T08:32:09.296Z,97564.53
2022-11-19T08:34:35.902Z,97564.19
2022-11-19T08:37:02.816Z,97574.78
2022-11-19T08:39:29.473Z,97579.06
2022-11-19T08:42:14.711Z,97575.13
2022-11-19T08:44:41.254Z,97584.03
2022-11-19T08:47:07.960Z,97584.84
2022-11-19T08:49:34.516Z,97584.06
2022-11-19T08:52:01.043Z,97594.59
2022-11-19T08:54:27.668Z,97591.13
2022-11-19T08:56:54.432Z,97588.34
2022-11-19T08:59:22.036Z,97592.59
2022-11-19T09:01:49.910Z,97594.75
2022-11-19T09:04:16.587Z,97589.59
2022-11-19T09:06:43.269Z,97591.03
2022-11-19T09:09:10.165Z,97596.47
2022-11-19T09:11:41.341Z,97595.44
2022-11-19T09:14:09.326Z,97603.97
2022-11-19T09:16:36.018Z,97604.44
2022-11-19T09:19:02.778Z,97606.72
2022-11-19T09:21:29.334Z,97612.03
2022-11-19T09:23:55.957Z,97623.91
2022-11-19T09:26:22.510Z,97613.94
2022-11-19T09:28:49.607Z,97619.75
2022-11-19T09:31:17.549Z,97613.50
2022-11-19T09:33:45.817Z,97627.69
2022-11-19T09:36:12.377Z,97628.38
2022-11-19T09:38:40.257Z,97628.13
2022-11-19T09:41:33.524Z,97625.00
2022-11-19T09:44:26.396Z,97630.50
2022-11-19T09:46:55.732Z,97633.78
2022-11-19T09:49:24.772Z,97629.78
2022-11-19T09:51:53.224Z,97629.63
2022-11-19T09:54:21.044Z,97627.78
2022-11-19T09:56:47.992Z,97627.56
2022-11-19T09:59:33.808Z,97631.38
2022-11-19T10:02:00.358Z,97627.38
2022-11-19T10:04:28.827Z,97621.38
2022-11-19T10:07:06.710Z,97621.19
2022-11-19T10:09:33.256Z,97626.63
2022-11-19T10:12:19.408Z,97628.09
2022-11-19T10:15:12.051Z,97626.63
2022-11-19T10:17:56.989Z,97620.81
2022-11-19T10:20:32.795Z,97622.59
2022-11-19T10:23:03.745Z,97618.63
2022-11-19T10:25:42.428Z,97618.81
2022-11-19T10:28:13.968Z,97613.28
2022-11-19T10:30:41.025Z,97613.00
2022-11-19T10:33:19.669Z,97608.88
2022-11-19T10:35:54.420Z,97613.81
2022-11-19T10:38:28.685Z,97608.88
2022-11-19T10:41:05.140Z,97607.34
2022-11-19T10:43:38.836Z,97601.44
2022-11-19T10:46:06.239Z,97609.28
2022-11-19T10:48:37.929Z,97605.31
2022-11-19T10:51:09.926Z,97612.00
2022-11-19T10:53:36.947Z,97604.38
2022-11-19T10:56:04.817Z,97595.59
2022-11-19T10:58:39.645Z,97600.25
2022-11-19T11:01:18.319Z,97602.03
2022-11-19T11:04:17.626Z,97590.06
2022-11-19T11:07:04.956Z,97601.03
2022-11-19T11:09:40.984Z,97600.22
2022-11-19T11:12:30.392Z,97593.72
2022-11-19T11:14:59.956Z,97598.16
2022-11-19T11:17:31.067Z,97604.31
2022-11-19T11:20:03.222Z,97603.22
2022-11-19T11:22:30.725Z,97601.25
2022-11-19T11:25:04.243Z,97604.03
2022-11-19T11:27:34.607Z,97600.81
2022-11-19T11:30:19.496Z,97600.75
2022-11-19T11:32:47.501Z,97596.47
2022-11-19T11:35:34.002Z,97594.97
2022-11-19T11:38:00.927Z,97605.34
2022-11-19T11:40:27.549Z,97600.09
2022-11-19T11:42:54.127Z,97601.38
2022-11-19T11:45:21.882Z,97599.69
2022-11-19T11:47:48.395Z,97591.47
2022-11-19T11:50:15.691Z,97599.41
2022-11-19T11:52:44.253Z,97594.69
2022-11-19T11:55:14.898Z,97594.69
2022-11-19T11:57:54.931Z,97585.91
2022-11-19T12:00:24.554Z,97588.38
2022-11-19T12:03:01.115Z,97596.00
2022-11-19T12:05:28.487Z,97602.94
2022-11-19T12:07:58.361Z,97593.41
2022-11-19T12:10:34.018Z,97600.31
2022-11-19T12:13:02.655Z,97598.72
2022-11-19T12:15:32.206Z,97605.31
2022-11-19T12:18:17.505Z,97604.38
2022-11-19T12:20:44.139Z,97610.56
2022-11-19T12:23:25.764Z,97604.06
2022-11-19T12:26:13.088Z,97612.47
2022-11-19T12:28:48.705Z,97598.53
2022-11-19T12:31:20.985Z,97598.81
2022-11-19T12:33:47.792Z,97600.28
2022-11-19T12:36:19.241Z,97595.59
2022-11-19T12:38:45.989Z,97603.03
2022-11-19T12:41:31.741Z,97603.06
2022-11-19T12:43:58.382Z,97600.25
2022-11-19T12:46:32.397Z,97607.53
2022-11-19T12:49:18.050Z,97598.81
2022-11-19T12:51:52.310Z,97607.31
2022-11-19T12:54:28.913Z,97606.94
2022-11-19T12:56:56.955Z,97608.84
2022-11-19T12:59:38.854Z,97609.06
2022-11-19T13:02:08.140Z,97608.75
2022-11-19T13:04:37.179Z,97603.78
2022-11-19T13:07:04.886Z,97607.72
2022-11-19T13:09:44.769Z,97606.09
2022-11-19T13:12:12.626Z,97617.00
2022-11-19T13:14:49.506Z,97612.34
2022-11-19T13:17:26.750Z,97604.06
2022-11-19T13:20:04.865Z,97613.88
2022-11-19T13:22:33.312Z,97604.91
2022-11-19T13:25:01.287Z,97611.19
2022-11-19T13:27:28.348Z,97607.25
2022-11-19T13:29:54.798Z,97603.78
2022-11-19T13:32:40.630Z,97601.97
2022-11-19T13:35:27.428Z,97604.06
2022-11-19T13:37:58.863Z,97604.25
2022-11-19T13:40:45.449Z,97609.22
2022-11-19T13:43:35.611Z,97614.63
2022-11-19T13:46:11.461Z,97604.00
2022-11-19T13:48:41.633Z,97614.88
2022-11-19T13:51:10.385Z,97614.34
2022-11-19T13:53:41.421Z,97606.59
2022-11-19T13:56:12.382Z,97606.28
2022-11-19T13:58:44.339Z,97609.47
2022-11-19T14:01:26.372Z,97609.13
2022-11-19T14:03:52.999Z,97604.78
2022-11-19T14:06:28.726Z,97597.03
2022-11-19T14:09:14.113Z,97612.84
2022-11-19T14:11:40.638Z,97608.44
2022-11-19T14:14:44.342Z,97617.16
2022-11-19T14:17:45.797Z,97612.91
2022-11-19T14:20:51.067Z,97612.97
2022-11-19T14:23:55.909Z,97613.34
2022-11-19T14:26:40.829Z,97609.38
2022-11-19T14:29:42.715Z,97611.38
2022-11-19T14:32:09.203Z,97608.75
2022-11-19T14:34:37.059Z,97614.34
2022-11-19T14:37:12.701Z,97611.25
2022-11-19T14:39:40.084Z,97610.56
2022-11-19T14:42:14.862Z,97612.44
2022-11-19T14:44:41.968Z,97610.13
2022-11-19T14:47:26.183Z,97613.72
2022-11-19T14:49:55.219Z,97623.16
2022-11-19T14:52:23.389Z,97631.53
2022-11-19T14:54:54.003Z,97630.88
2022-11-19T14:57:25.408Z,97642.44
2022-11-19T14:59:52.964Z,97636.69
2022-11-19T15:02:39.619Z,97653.09
2022-11-19T15:05:14.774Z,97655.28
2022-11-19T15:07:55.994Z,97640.25
2022-11-19T15:10:27.160Z,97641.53
2022-11-19T15:13:12.802Z,97641.75
2022-11-19T15:15:42.808Z,97644.88
2022-11-19T15:18:23.271Z,97640.03
2022-11-19T15:20:59.079Z,97640.25
2022-11-19T15:23:34.713Z,97643.84
2022-11-19T15:26:06.927Z,97640.88
2022-11-19T15:28:52.510Z,97633.88
2022-11-19T15:31:38.603Z,97645.88
2022-11-19T15:34:07.151Z,97636.91
2022-11-19T15:36:39.735Z,97635.25
2022-11-19T15:39:17.050Z,97640.00
2022-11-19T15:42:00.684Z,97637.69
2022-11-19T15:44:36.663Z,97639.50
2022-11-19T15:47:14.405Z,97635.50
2022-11-19T15:49:44.311Z,97646.16
2022-11-19T15:52:17.587Z,97641.53
2022-11-19T15:54:44.811Z,97641.88
2022-11-19T15:57:17.373Z,97648.09
2022-11-19T15:59:57.241Z,97646.28
2022-11-19T16:04:57.379Z,97656.09
2022-11-19T16:07:25.319Z,97641.03
2022-11-19T16:09:52.276Z,97647.28
2022-11-19T16:12:39.006Z,97645.69
2022-11-19T16:15:34.954Z,97645.03
2022-11-19T16:18:01.510Z,97648.16
2022-11-19T16:20:28.063Z,97652.47
2022-11-19T16:22:54.587Z,97645.91
2022-11-19T16:25:40.021Z,97653.03
2022-11-19T16:28:27.712Z,97661.19
2022-11-19T16:30:54.985Z,97660.53
2022-11-19T16:33:22.568Z,97658.88
2022-11-19T16:35:52.935Z,97670.75
2022-11-19T16:38:29.227Z,97667.22
2022-11-19T16:41:14.586Z,97674.25
2022-11-19T16:43:41.880Z,97668.97
2022-11-19T16:46:08.408Z,97663.31
2022-11-19T16:48:50.635Z,97670.56
2022-11-19T16:51:26.290Z,97668.53
2022-11-19T16:53:52.896Z,97666.69
2022-11-19T16:56:19.631Z,97669.28
2022-11-19T16:58:46.327Z,97670.25
2022-11-19T17:01:12.927Z,97671.50
2022-11-19T17:03:40.825Z,97674.56
2022-11-19T17:06:08.965Z,97680.38
2022-11-19T17:08:39.481Z,97683.13
2022-11-19T17:11:34.374Z,97683.69
2022-11-19T17:14:04.986Z,97681.53
2022-11-19T17:16:31.511Z,97693.22
2022-11-19T17:18:58.134Z,97686.38
2022-11-19T17:21:28.145Z,97687.47
2022-11-19T17:23:54.918Z,97682.28
2022-11-19T17:26:27.291Z,97691.94
2022-11-19T17:28:57.145Z,97693.75
2022-11-19T17:31:26.243Z,97704.97
2022-11-19T17:33:55.907Z,97697.69
2022-11-19T17:36:23.118Z,97700.88
2022-11-19T17:41:43.160Z,97704.19
2022-11-19T17:44:44.799Z,97704.78
2022-11-19T17:50:23.809Z,97703.16
2022-11-19T17:52:50.557Z,97710.41
2022-11-19T17:55:18.292Z,97705.84
2022-11-19T17:57:44.945Z,97719.38
2022-11-19T18:00:11.974Z,97720.72
2022-11-19T18:02:38.568Z,97715.50
2022-11-19T18:05:16.396Z,97718.13
2022-11-19T18:07:43.576Z,97713.69
2022-11-19T18:10:10.206Z,97718.75
2022-11-19T18:12:36.949Z,97710.38
2022-11-19T18:15:03.767Z,97721.31
2022-11-19T18:17:30.331Z,97712.03
2022-11-19T18:19:56.851Z,97715.22
2022-11-19T18:22:23.858Z,97721.44
2022-11-19T18:24:50.784Z,97728.44
2022-11-19T18:27:17.413Z,97724.25
2022-11-19T18:29:44.079Z,97718.34
2022-11-19T18:32:11.172Z,97719.34
2022-11-19T18:34:37.850Z,97713.53
2022-11-19T18:37:04.421Z,97726.91
2022-11-19T18:39:31.012Z,97730.13
2022-11-19T18:41:57.566Z,97722.94
2022-11-19T18:44:36.149Z,97725.56
2022-11-19T18:47:03.859Z,97726.41
2022-11-19T18:49:30.583Z,97733.81
2022-11-19T18:51:57.100Z,97732.09
2022-11-19T18:54:23.659Z,97733.97
2022-11-19T18:56:50.567Z,97725.78
2022-11-19T18:59:17.850Z,97731.78
2022-11-19T19:01:44.482Z,97731.16
2022-11-19T19:04:14.304Z,97733.88
2022-11-19T19:06:41.394Z,97730.69
2022-11-19T19:09:08.665Z,97746.53
2022-11-19T19:11:54.169Z,97745.69
2022-11-19T19:14:22.055Z,97742.50
2022-11-19T19:16:48.675Z,97745.31
2022-11-19T19:19:17.287Z,97747.50
2022-11-19T19:21:43.995Z,97744.97
2022-11-19T19:24:11.453Z,97743.47
2022-11-19T19:26:39.485Z,97750.53
2022-11-19T19:29:06.502Z,97761.13
2022-11-19T19:31:33.556Z,97762.88
2022-11-19T19:34:01.328Z,97755.97
2022-11-19T19:36:28.137Z,97757.31
2022-11-19T19:38:54.707Z,97771.44
2022-11-19T19:41:25.524Z,97768.00
2022-11-19T19:43:52.779Z,97766.47
2022-11-19T19:46:20.151Z,97764.66
2022-11-19T19:48:47.560Z,97767.63
2022-11-19T19:51:14.850Z,97774.91
2022-11-19T19:53:45.504Z,97774.44
2022-11-19T19:56:13.051Z,97772.16
2022-11-19T19:58:39.956Z,97782.28
2022-11-19T20:01:10.705Z,97778.84
2022-11-19T20:03:37.451Z,97782.97
2022-11-19T20:06:04.969Z,97788.19
2022-11-19T20:08:31.640Z,97788.84
2022-11-19T20:11:06.675Z,97794.69
2022-11-19T20:13:33.644Z,97805.16
2022-11-19T20:16:04.390Z,97801.56
2022-11-19T20:18:32.227Z,97793.06
2022-11-19T20:21:00.269Z,97787.59
2022-11-19T20:23:29.798Z,97788.47
2022-11-19T20:26:04.117Z,97800.06
2022-11-19T20:28:30.781Z,97799.63
2022-11-19T20:31:04.185Z,97795.47
2022-11-19T20:33:31.531Z,97790.78
2022-11-19T20:35:58.236Z,97797.66
2022-11-19T20:38:25.002Z,97795.38
2022-11-19T20:41:01.702Z,97803.75
2022-11-19T20:43:52.590Z,97797.94
2022-11-19T20:46:20.261Z,97798.94
2022-11-19T20:48:47.426Z,97806.34
2022-11-19T20:51:14.257Z,97805.19
2022-11-19T20:53:40.848Z,97804.69
2022-11-19T20:56:08.137Z,97804.03
2022-11-19T20:58:35.461Z,97807.88
2022-11-19T21:01:34.456Z,97811.41
2022-11-19T21:04:46.803Z,97817.53
2022-11-19T21:13:08.066Z,97827.69
2022-11-19T21:15:36.154Z,97830.56
2022-11-19T21:18:02.890Z,97826.09
2022-11-19T21:20:29.641Z,97818.31
2022-11-19T21:22:56.568Z,97814.81
2022-11-19T21:25:23.090Z,97820.59
2022-11-19T21:28:02.846Z,97824.06
2022-11-19T21:33:37.923Z,97813.50
2022-11-19T21:36:04.950Z,97814.75
2022-11-19T21:38:31.516Z,97810.41
2022-11-19T21:40:58.224Z,97810.31
2022-11-19T21:43:25.515Z,97802.13
2022-11-19T21:45:54.449Z,97810.66
2022-11-19T21:48:21.627Z,97801.50
2022-11-19T21:51:14.530Z,97809.59
2022-11-19T22:03:00.963Z,97814.03
2022-11-19T22:05:27.958Z,97809.56
2022-11-19T22:07:54.504Z,97821.50
2022-11-19T22:10:21.240Z,97820.97
2022-11-19T22:12:48.754Z,97820.34
2022-11-19T22:15:15.311Z,97832.38
2022-11-19T22:17:41.891Z,97825.50
2022-11-19T22:20:08.554Z,97820.84
2022-11-19T22:22:35.119Z,97825.00
2022-11-19T22:25:02.070Z,97828.19
2022-11-19T22:27:28.955Z,97822.28
2022-11-19T22:29:56.691Z,97823.28
2022-11-19T22:32:23.459Z,97821.09
2022-11-19T22:38:11.231Z,97825.84
2022-11-19T23:02:52.967Z,97803.81
2022-11-19T23:08:15.176Z,97807.94
2022-11-19T23:10:43.747Z,97804.72
2022-11-19T23:13:33.052Z,97810.03
2022-11-19T23:16:05.820Z,97809.69
2022-11-19T23:21:45.150Z,97805.88
2022-11-19T23:24:13.147Z,97808.91
2022-11-19T23:26:59.676Z,97808.34
2022-11-19T23:29:29.106Z,97804.03
2022-11-19T23:31:58.342Z,97805.75
2022-11-19T23:34:41.018Z,97805.06
2022-11-19T23:37:10.839Z,97807.97
2022-11-19T23:39:50.456Z,97805.75
2022-11-19T23:42:39.565Z,97808.09
2022-11-19T23:45:06.333Z,97808.47
2022-11-19T23:47:36.613Z,97807.13
2022-11-19T23:50:03.511Z,97810.19
2022-11-19T23:52:30.017Z,97808.38
2022-11-19T23:54:56.640Z,97804.44
2022-11-19T23:57:23.219Z,97807.84
2022-11-19T23:59:49.770Z,97810.47
